createdAt,value
2018-07-20T00:01:45.980Z,4.70
2018-07-20T00:04:14.665Z,4.85
2018-07-20T00:06:43.354Z,4.42
2018-07-20T00:09:12.035Z,4.80
2018-07-20T00:11:40.720Z,4.62
2018-07-20T00:14:08.981Z,4.80
2018-07-20T00:16:37.736Z,4.90
2018-07-20T00:19:06.414Z,4.73
2018-07-20T00:21:35.098Z,4.70
2018-07-20T00:24:03.783Z,5.15
2018-07-20T00:26:32.467Z,4.97
2018-07-20T00:29:01.152Z,5.57
2018-07-20T00:31:29.836Z,5.10
2018-07-20T00:33:58.520Z,4.95
2018-07-20T00:36:27.208Z,4.60
2018-07-20T00:38:56.011Z,4.95
2018-07-20T00:41:24.695Z,5.10
2018-07-20T00:43:53.379Z,4.87
2018-07-20T00:46:22.065Z,4.80
2018-07-20T00:48:50.754Z,5.10
2018-07-20T00:51:19.554Z,4.78
2018-07-20T00:53:48.238Z,5.20
2018-07-20T00:56:16.923Z,5.33
2018-07-20T00:58:45.608Z,5.10
2018-07-20T01:01:14.291Z,5.37
2018-07-20T01:03:42.978Z,5.40
2018-07-20T01:06:11.661Z,5.20
2018-07-20T01:11:08.191Z,4.87
2018-07-20T01:13:36.876Z,5.83
2018-07-20T01:16:05.559Z,5.40
2018-07-20T01:18:34.244Z,5.80
2018-07-20T01:21:02.929Z,5.87
2018-07-20T01:23:31.613Z,6.30
2018-07-20T01:26:00.298Z,4.57
2018-07-20T01:28:28.982Z,5.50
2018-07-20T01:30:57.667Z,5.27
2018-07-20T01:33:26.354Z,5.50
2018-07-20T01:35:55.036Z,5.33
2018-07-20T01:38:23.722Z,5.03
2018-07-20T01:40:52.407Z,5.63
2018-07-20T01:43:21.090Z,4.90
2018-07-20T01:45:49.775Z,5.43
2018-07-20T01:48:18.458Z,6.50
2018-07-20T01:50:47.143Z,6.20
2018-07-20T01:53:15.831Z,5.13
2018-07-20T01:55:44.513Z,5.47
2018-07-20T01:58:13.198Z,5.97
2018-07-20T02:00:41.882Z,6.40
2018-07-20T02:03:10.567Z,5.30
2018-07-20T02:05:39.252Z,5.90
2018-07-20T02:08:07.936Z,5.43
2018-07-20T02:10:36.620Z,4.43
2018-07-20T02:13:05.306Z,5.30
2018-07-20T02:15:33.990Z,5.53
2018-07-20T02:18:02.674Z,6.43
2018-07-20T02:20:31.359Z,6.40
2018-07-20T02:23:00.045Z,5.50
2018-07-20T02:25:28.729Z,5.17
2018-07-20T02:27:57.414Z,5.40
2018-07-20T02:30:26.097Z,6.00
2018-07-20T02:32:54.782Z,5.60
2018-07-20T02:35:23.467Z,6.57
2018-07-20T02:37:52.152Z,5.70
2018-07-20T02:40:20.835Z,5.67
2018-07-20T02:42:49.521Z,5.50
2018-07-20T02:45:18.207Z,6.00
2018-07-20T02:47:46.890Z,5.93
2018-07-20T02:50:15.575Z,5.33
2018-07-20T02:52:44.263Z,6.80
2018-07-20T02:55:12.946Z,6.00
2018-07-20T02:57:41.628Z,5.60
2018-07-20T03:00:10.314Z,6.23
2018-07-20T03:02:38.996Z,5.57
2018-07-20T03:05:07.682Z,5.80
2018-07-20T03:07:36.367Z,5.43
2018-07-20T03:10:05.532Z,5.43
2018-07-20T03:12:34.216Z,6.57
2018-07-20T03:15:03.021Z,5.70
2018-07-20T03:17:31.706Z,5.70
2018-07-20T03:20:00.389Z,6.13
2018-07-20T03:22:29.074Z,6.87
2018-07-20T03:24:57.761Z,6.27
2018-07-20T03:27:26.443Z,6.10
2018-07-20T03:29:55.129Z,5.63
2018-07-20T03:32:23.813Z,6.17
2018-07-20T03:34:52.618Z,5.87
2018-07-20T03:37:21.302Z,5.60
2018-07-20T03:39:49.987Z,6.40
2018-07-20T03:42:18.674Z,6.23
2018-07-20T03:44:47.355Z,8.87
2018-07-20T03:47:16.041Z,6.03
2018-07-20T03:49:44.725Z,6.67
2018-07-20T03:52:13.462Z,5.90
2018-07-20T03:54:42.455Z,5.83
2018-07-20T03:57:11.140Z,6.07
2018-07-20T03:59:39.823Z,6.47
2018-07-20T04:02:08.517Z,6.60
2018-07-20T04:04:37.193Z,6.20
2018-07-20T04:07:05.877Z,6.40
2018-07-20T04:09:34.564Z,6.93
2018-07-20T04:12:03.250Z,6.00
2018-07-20T04:14:31.931Z,6.50
2018-07-20T04:17:00.619Z,6.80
2018-07-20T04:19:28.877Z,6.70
2018-07-20T04:21:57.625Z,5.87
2018-07-20T04:24:26.333Z,6.40
2018-07-20T04:26:54.994Z,6.50
2018-07-20T04:29:23.678Z,7.50
2018-07-20T04:31:52.364Z,6.40
2018-07-20T04:34:21.048Z,5.60
2018-07-20T04:36:49.732Z,6.90
2018-07-20T04:39:18.417Z,6.00
2018-07-20T04:41:47.102Z,6.30
2018-07-20T04:44:15.788Z,6.67
2018-07-20T04:46:44.471Z,5.57
2018-07-20T04:49:13.157Z,6.13
2018-07-20T04:51:41.840Z,6.00
2018-07-20T04:54:10.525Z,6.33
2018-07-20T04:56:39.213Z,5.83
2018-07-20T04:59:07.894Z,6.43
2018-07-20T05:01:36.579Z,6.77
2018-07-20T05:04:05.264Z,6.63
2018-07-20T05:06:33.948Z,6.57
2018-07-20T05:09:02.883Z,6.30
2018-07-20T05:11:31.571Z,6.23
2018-07-20T05:14:00.241Z,5.93
2018-07-20T05:16:28.926Z,6.73
2018-07-20T05:18:57.611Z,6.30
2018-07-20T05:21:26.295Z,7.70
2018-07-20T05:23:54.983Z,6.40
2018-07-20T05:26:23.665Z,6.13
2018-07-20T05:28:52.350Z,6.93
2018-07-20T05:31:21.160Z,6.80
2018-07-20T05:33:49.839Z,6.22
2018-07-20T05:36:18.524Z,6.40
2018-07-20T05:38:47.214Z,6.43
2018-07-20T05:41:15.893Z,6.22
2018-07-20T05:43:44.697Z,6.00
2018-07-20T05:46:13.382Z,6.60
2018-07-20T05:48:42.068Z,6.42
2018-07-20T05:51:10.751Z,6.70
2018-07-20T05:53:39.435Z,6.80
2018-07-20T05:56:08.120Z,7.00
2018-07-20T05:58:36.805Z,6.95
2018-07-20T06:01:05.489Z,6.60
2018-07-20T06:03:34.174Z,6.95
2018-07-20T06:06:02.859Z,6.83
2018-07-20T06:08:31.544Z,5.90
2018-07-20T06:11:00.228Z,6.10
2018-07-20T06:13:28.912Z,6.92
2018-07-20T06:15:57.597Z,6.17
2018-07-20T06:18:26.282Z,6.40
2018-07-20T06:20:54.967Z,6.00
2018-07-20T06:23:23.651Z,6.20
2018-07-20T06:25:52.334Z,6.33
2018-07-20T06:28:21.380Z,6.30
2018-07-20T06:30:50.065Z,6.30
2018-07-20T06:33:18.751Z,6.03
2018-07-20T06:35:47.433Z,6.42
2018-07-20T06:38:16.118Z,5.78
2018-07-20T06:40:44.936Z,6.20
2018-07-20T06:43:13.728Z,6.97
2018-07-20T06:45:42.416Z,6.15
2018-07-20T06:48:11.099Z,6.80
2018-07-20T06:50:39.781Z,6.42
2018-07-20T06:53:08.466Z,6.20
2018-07-20T06:55:37.150Z,7.10
2018-07-20T06:58:05.834Z,7.50
2018-07-20T07:00:41.242Z,7.00
2018-07-20T07:03:09.924Z,7.58
2018-07-20T07:05:38.609Z,7.78
2018-07-20T07:08:07.293Z,8.88
2018-07-20T07:10:35.978Z,8.40
2018-07-20T07:13:04.782Z,8.95
2018-07-20T07:15:33.588Z,7.70
2018-07-20T07:18:02.273Z,8.80
2018-07-20T07:20:30.957Z,8.47
2018-07-20T07:22:59.640Z,10.13
2018-07-20T07:25:28.326Z,9.30
2018-07-20T07:27:57.011Z,7.27
2018-07-20T07:30:25.697Z,7.30
2018-07-20T07:32:54.501Z,7.17
2018-07-20T07:35:23.184Z,7.63
2018-07-20T07:37:51.992Z,8.40
2018-07-20T07:40:20.674Z,8.10
2018-07-20T07:42:49.363Z,8.10
2018-07-20T07:45:18.045Z,7.53
2018-07-20T07:47:46.728Z,8.80
2018-07-20T07:50:15.413Z,8.33
2018-07-20T07:52:44.097Z,7.60
2018-07-20T07:55:12.783Z,6.93
2018-07-20T07:57:41.586Z,7.07
2018-07-20T08:00:10.271Z,6.93
2018-07-20T08:02:38.955Z,6.50
2018-07-20T08:05:07.640Z,7.30
2018-07-20T08:07:36.324Z,6.30
2018-07-20T08:10:05.237Z,7.40
2018-07-20T08:12:33.936Z,7.33
2018-07-20T08:15:02.303Z,5.93
2018-07-20T08:17:30.945Z,7.10
2018-07-20T08:19:59.628Z,6.40
2018-07-20T08:22:28.312Z,6.50
2018-07-20T08:24:56.997Z,6.37
2018-07-20T08:27:32.046Z,7.07
2018-07-20T08:30:00.726Z,6.90
2018-07-20T08:32:29.410Z,5.77
2018-07-20T08:34:58.095Z,5.93
2018-07-20T08:37:26.779Z,7.00
2018-07-20T08:39:55.465Z,5.90
2018-07-20T08:42:24.152Z,5.77
2018-07-20T08:49:48.221Z,5.73
2018-07-20T08:52:17.087Z,5.13
2018-07-20T08:54:45.772Z,5.90
2018-07-20T08:57:14.457Z,5.78
2018-07-20T08:59:43.262Z,5.70
2018-07-20T09:02:11.947Z,5.60
2018-07-20T09:04:40.631Z,4.78
2018-07-20T09:07:09.316Z,4.87
2018-07-20T09:09:38.000Z,5.70
2018-07-20T09:12:06.692Z,4.60
2018-07-20T09:14:35.369Z,5.05
2018-07-20T09:17:04.054Z,4.87
2018-07-20T09:19:32.738Z,4.80
2018-07-20T09:22:01.784Z,5.33
2018-07-20T09:24:30.467Z,4.42
2018-07-20T09:26:59.153Z,4.08
2018-07-20T09:29:27.840Z,4.45
2018-07-20T09:31:56.642Z,4.05
2018-07-20T09:34:25.326Z,4.55
2018-07-20T09:36:54.014Z,3.83
2018-07-20T09:39:22.696Z,4.58
2018-07-20T09:41:51.380Z,4.30
2018-07-20T09:44:20.441Z,3.75
2018-07-20T09:46:49.110Z,3.67
2018-07-20T09:49:17.795Z,3.70
2018-07-20T09:51:46.599Z,3.90
2018-07-20T09:54:15.304Z,3.73
2018-07-20T09:56:43.969Z,4.22
2018-07-20T09:59:12.773Z,4.00
2018-07-20T10:01:41.578Z,3.72
2018-07-20T10:04:10.384Z,4.20
2018-07-20T10:06:39.066Z,3.70
2018-07-20T10:09:10.631Z,3.85
2018-07-20T10:11:39.315Z,4.00
2018-07-20T10:14:08.124Z,4.22
2018-07-20T10:16:36.804Z,4.17
2018-07-20T10:19:05.788Z,3.83
2018-07-20T10:21:34.462Z,3.40
2018-07-20T10:24:03.098Z,4.40
2018-07-20T10:26:31.783Z,3.50
2018-07-20T10:29:01.069Z,4.00
2018-07-20T10:31:29.752Z,4.10
2018-07-20T10:33:58.446Z,3.60
2018-07-20T10:36:27.120Z,3.50
2018-07-20T10:38:55.805Z,3.80
2018-07-20T10:41:24.490Z,3.80
2018-07-20T10:43:53.174Z,4.07
2018-07-20T10:46:21.861Z,3.60
2018-07-20T10:48:50.544Z,4.00
2018-07-20T10:51:19.228Z,3.70
2018-07-20T10:53:47.913Z,3.20
2018-07-20T10:56:16.597Z,3.90
2018-07-20T10:58:45.282Z,3.55
2018-07-20T11:01:13.967Z,3.43
2018-07-20T11:03:42.653Z,3.72
2018-07-20T11:06:11.339Z,3.40
2018-07-20T11:08:39.660Z,3.80
2018-07-20T11:11:10.266Z,3.50
2018-07-20T11:13:38.967Z,3.30
2018-07-20T11:16:07.755Z,3.60
2018-07-20T11:18:36.439Z,3.60
2018-07-20T11:21:05.125Z,3.70
2018-07-20T11:23:33.808Z,3.60
2018-07-20T11:26:02.492Z,3.40
2018-07-20T11:28:31.178Z,3.27
2018-07-20T11:30:59.863Z,3.50
2018-07-20T11:33:28.546Z,4.15
2018-07-20T11:35:57.351Z,3.87
2018-07-20T11:38:26.036Z,3.33
2018-07-20T11:40:54.720Z,3.25
2018-07-20T11:43:23.404Z,3.40
2018-07-20T11:45:52.089Z,3.50
2018-07-20T11:48:20.784Z,3.50
2018-07-20T11:50:49.458Z,3.70
2018-07-20T11:53:18.143Z,3.00
2018-07-20T11:55:46.828Z,3.60
2018-07-20T11:58:15.513Z,3.80
2018-07-20T12:00:44.198Z,3.30
2018-07-20T12:03:12.882Z,3.90
2018-07-20T12:05:41.567Z,3.60
2018-07-20T12:08:10.251Z,3.47
2018-07-20T12:10:38.935Z,3.30
2018-07-20T12:13:07.623Z,3.60
2018-07-20T12:15:36.304Z,3.50
2018-07-20T12:18:04.989Z,3.70
2018-07-20T12:20:33.674Z,3.50
2018-07-20T12:23:02.393Z,3.80
2018-07-20T12:25:31.043Z,3.50
2018-07-20T12:27:59.304Z,3.60
2018-07-20T12:30:28.052Z,3.40
2018-07-20T12:32:56.737Z,3.65
2018-07-20T12:35:25.424Z,3.52
2018-07-20T12:37:54.106Z,3.60
2018-07-20T12:40:22.791Z,3.92
2018-07-20T12:42:51.475Z,3.50
2018-07-20T12:45:20.159Z,3.92
2018-07-20T12:47:48.844Z,3.87
2018-07-20T12:50:17.575Z,3.70
2018-07-20T12:52:46.214Z,4.10
2018-07-20T12:55:14.899Z,3.72
2018-07-20T12:57:43.705Z,3.80
2018-07-20T13:00:12.388Z,3.70
2018-07-20T13:02:41.072Z,3.90
2018-07-20T13:05:09.763Z,3.87
2018-07-20T13:07:38.441Z,3.87
2018-07-20T13:10:07.126Z,3.85
2018-07-20T13:12:35.813Z,3.92
2018-07-20T13:15:05.095Z,3.67
2018-07-20T13:17:33.781Z,3.60
2018-07-20T13:20:02.466Z,3.65
2018-07-20T13:22:31.149Z,3.90
2018-07-20T13:24:59.854Z,3.85
2018-07-20T13:27:28.518Z,4.10
2018-07-20T13:29:57.203Z,3.60
2018-07-20T13:32:25.462Z,3.95
2018-07-20T13:34:54.094Z,4.53
2018-07-20T13:37:22.777Z,4.30
2018-07-20T13:39:51.467Z,4.20
2018-07-20T13:42:20.155Z,3.90
2018-07-20T13:44:48.830Z,4.12
2018-07-20T13:47:18.355Z,3.95
2018-07-20T13:49:47.039Z,4.00
2018-07-20T13:52:15.723Z,4.40
2018-07-20T13:54:44.409Z,4.67
2018-07-20T13:57:13.094Z,4.00
2018-07-20T13:59:41.779Z,4.30
2018-07-20T14:02:10.464Z,4.22
2018-07-20T14:04:39.148Z,4.60
2018-07-20T14:07:07.832Z,4.80
2018-07-20T14:09:36.160Z,4.60
2018-07-20T14:12:04.842Z,4.50
2018-07-20T14:14:33.526Z,5.00
2018-07-20T14:17:02.211Z,4.70
2018-07-20T14:19:30.896Z,3.87
2018-07-20T14:21:59.701Z,4.27
2018-07-20T14:24:28.384Z,4.45
2018-07-20T14:26:57.195Z,4.50
2018-07-20T14:29:25.873Z,4.08
2018-07-20T14:31:54.710Z,5.00
2018-07-20T14:34:23.362Z,4.70
2018-07-20T14:36:52.048Z,3.93
2018-07-20T14:39:20.732Z,4.20
2018-07-20T14:41:49.417Z,4.20
2018-07-20T14:44:18.101Z,4.20
2018-07-20T14:46:46.785Z,4.33
2018-07-20T14:49:15.473Z,3.90
2018-07-20T14:51:44.155Z,4.10
2018-07-20T14:54:12.839Z,4.33
2018-07-20T14:56:41.524Z,4.10
2018-07-20T14:59:10.209Z,3.98
2018-07-20T15:01:38.927Z,4.10
2018-07-20T15:04:07.939Z,3.90
2018-07-20T15:06:36.624Z,4.17
2018-07-20T15:09:08.907Z,3.93
2018-07-20T15:11:37.634Z,4.20
2018-07-20T15:14:06.276Z,4.45
2018-07-20T15:16:34.960Z,4.08
2018-07-20T15:19:03.646Z,4.20
2018-07-20T15:21:32.333Z,4.50
2018-07-20T15:24:01.021Z,4.15
2018-07-20T15:26:29.700Z,4.30
2018-07-20T15:28:58.383Z,4.45
2018-07-20T15:31:26.831Z,4.40
2018-07-20T15:33:55.512Z,3.80
2018-07-20T15:36:24.198Z,4.35
2018-07-20T15:38:52.881Z,6.80
2018-07-20T15:41:21.570Z,5.00
2018-07-20T15:43:50.278Z,4.50
2018-07-20T15:46:19.186Z,4.17
2018-07-20T15:48:47.741Z,5.30
2018-07-20T15:51:16.425Z,4.97
2018-07-20T15:53:45.180Z,4.45
2018-07-20T15:56:13.794Z,4.20
2018-07-20T15:58:42.598Z,3.72
2018-07-20T16:01:11.283Z,4.30
2018-07-20T16:03:39.967Z,4.10
2018-07-20T16:06:08.652Z,5.30
2018-07-20T16:08:37.337Z,4.45
2018-07-20T16:11:06.021Z,4.15
2018-07-20T16:13:34.707Z,4.30
2018-07-20T16:16:03.391Z,4.60
2018-07-20T16:18:32.076Z,3.95
2018-07-20T16:21:00.762Z,4.53
2018-07-20T16:23:29.446Z,5.00
2018-07-20T16:25:58.212Z,4.30
2018-07-20T16:28:26.817Z,4.10
2018-07-20T16:30:55.499Z,4.30
2018-07-20T16:33:24.186Z,4.08
2018-07-20T16:35:52.923Z,4.25
2018-07-20T16:38:21.554Z,3.90
2018-07-20T16:40:50.238Z,4.27
2018-07-20T16:43:18.922Z,4.30
2018-07-20T16:45:47.607Z,4.22
2018-07-20T16:48:16.291Z,3.90
2018-07-20T16:50:44.977Z,4.30
2018-07-20T16:53:13.665Z,4.10
2018-07-20T16:55:42.345Z,4.40
2018-07-20T16:58:11.041Z,4.58
2018-07-20T17:00:39.838Z,4.43
2018-07-20T17:03:08.572Z,4.70
2018-07-20T17:05:37.204Z,4.40
2018-07-20T17:08:06.010Z,4.20
2018-07-20T17:10:34.714Z,4.42
2018-07-20T17:13:03.498Z,4.60
2018-07-20T17:15:32.183Z,4.40
2018-07-20T17:18:00.870Z,4.78
2018-07-20T17:20:29.553Z,4.90
2018-07-20T17:22:58.237Z,5.00
2018-07-20T17:25:27.042Z,4.20
2018-07-20T17:27:55.764Z,4.60
2018-07-20T17:30:24.411Z,4.80
2018-07-20T17:32:53.095Z,4.67
2018-07-20T17:35:21.779Z,4.33
2018-07-20T17:37:50.467Z,4.90
2018-07-20T17:40:19.148Z,4.97
2018-07-20T17:42:47.834Z,5.00
2018-07-20T17:45:16.578Z,4.72
2018-07-20T17:47:45.206Z,4.87
2018-07-20T17:50:13.887Z,5.00
2018-07-20T17:52:42.572Z,4.60
2018-07-20T17:55:11.256Z,5.00
2018-07-20T17:57:39.946Z,5.30
2018-07-20T18:00:08.624Z,5.20
2018-07-20T18:02:37.315Z,6.08
2018-07-20T18:05:06.715Z,4.70
2018-07-20T18:07:35.398Z,5.85
2018-07-20T18:10:04.684Z,5.62
2018-07-20T18:12:33.370Z,5.60
2018-07-20T18:15:02.052Z,5.55
2018-07-20T18:17:30.737Z,6.17
2018-07-20T18:19:59.422Z,6.60
2018-07-20T18:22:28.107Z,5.80
2018-07-20T18:24:56.791Z,5.62
2018-07-20T18:27:25.557Z,5.37
2018-07-20T18:29:54.160Z,5.28
2018-07-20T18:32:22.845Z,6.20
2018-07-20T18:34:51.529Z,11.90
2018-07-20T18:37:20.214Z,7.90
2018-07-20T18:39:48.476Z,6.20
2018-07-20T18:42:17.108Z,5.95
2018-07-20T18:44:45.788Z,5.28
2018-07-20T18:47:14.473Z,5.60
2018-07-20T18:49:43.160Z,6.25
2018-07-20T18:52:11.843Z,5.37
2018-07-20T18:54:40.527Z,6.17
2018-07-20T18:57:09.211Z,7.00
2018-07-20T18:59:37.901Z,7.05
2018-07-20T19:02:06.580Z,5.70
2018-07-20T19:04:35.265Z,5.20
2018-07-20T19:07:03.949Z,5.10
2018-07-20T19:09:32.633Z,5.12
2018-07-20T19:12:01.319Z,5.30
2018-07-20T19:14:30.362Z,5.45
2018-07-20T19:16:59.046Z,5.00
2018-07-20T19:20:30.736Z,4.92
2018-07-20T19:22:59.539Z,6.92
2018-07-20T19:25:28.703Z,6.75
2018-07-20T19:27:57.508Z,7.15
2018-07-20T19:30:26.326Z,7.42
2018-07-20T19:32:54.999Z,7.35
2018-07-20T19:35:23.803Z,7.12
2018-07-20T19:37:52.608Z,7.40
2018-07-20T19:40:21.945Z,7.53
2018-07-20T19:42:52.375Z,7.83
2018-07-20T19:45:21.184Z,8.20
2018-07-20T19:47:50.345Z,7.97
2018-07-20T19:50:19.030Z,7.90
2018-07-20T19:52:47.714Z,7.92
2018-07-20T19:55:16.759Z,7.92
2018-07-20T19:57:45.923Z,8.00
2018-07-20T20:00:14.848Z,7.80
2018-07-20T20:02:44.012Z,7.50
2018-07-20T20:05:13.178Z,8.10
2018-07-20T20:07:41.862Z,8.60
2018-07-20T20:10:10.667Z,8.10
2018-07-20T20:12:39.350Z,8.40
2018-07-20T20:15:08.302Z,8.25
2018-07-20T20:17:36.960Z,8.18
2018-07-20T20:20:09.245Z,8.90
2018-07-20T20:22:37.931Z,8.13
2018-07-20T20:25:06.734Z,7.62
2018-07-20T20:28:38.780Z,8.95
2018-07-20T20:31:07.465Z,7.80
2018-07-20T20:33:36.153Z,8.53
2018-07-20T20:36:04.834Z,7.50
2018-07-20T20:38:33.518Z,8.58
2018-07-20T20:41:02.323Z,7.80
2018-07-20T20:43:31.041Z,8.58
2018-07-20T20:45:59.693Z,7.95
2018-07-20T20:48:28.379Z,8.00
2018-07-20T20:52:26.225Z,7.70
2018-07-20T20:54:54.910Z,8.17
2018-07-20T20:57:23.597Z,8.00
2018-07-20T20:59:52.399Z,8.00
2018-07-20T21:02:21.084Z,8.27
2018-07-20T21:04:49.771Z,8.20
2018-07-20T21:07:18.455Z,8.78
2018-07-20T21:09:47.137Z,8.80
2018-07-20T21:12:15.992Z,9.10
2018-07-20T21:14:44.628Z,8.03
2018-07-20T21:17:13.311Z,7.78
2018-07-20T21:19:41.996Z,8.25
2018-07-20T21:22:10.680Z,7.83
2018-07-20T21:24:39.365Z,8.20
2018-07-20T21:27:08.049Z,7.00
2018-07-20T21:29:36.738Z,7.25
2018-07-20T21:32:05.422Z,6.77
2018-07-20T21:34:34.104Z,8.93
2018-07-20T21:37:02.907Z,8.85
2018-07-20T21:39:31.603Z,10.48
2018-07-20T21:42:00.278Z,9.23
2018-07-20T21:44:28.962Z,8.90
2018-07-20T21:46:57.649Z,8.73
2018-07-20T21:49:26.331Z,9.50
2018-07-20T21:51:55.021Z,10.20
2018-07-20T21:54:23.705Z,9.13
2018-07-20T21:56:52.384Z,8.10
2018-07-20T21:59:21.069Z,8.00
2018-07-20T22:01:49.754Z,8.17
2018-07-20T22:04:18.439Z,7.65
2018-07-20T22:06:47.124Z,7.40
2018-07-20T22:09:15.808Z,7.85
2018-07-20T22:11:44.493Z,7.90
2018-07-20T22:14:13.178Z,7.75
2018-07-20T22:16:41.861Z,7.67
2018-07-20T22:19:10.546Z,7.62
2018-07-20T22:21:38.810Z,7.85
2018-07-20T22:24:07.435Z,8.78
2018-07-20T22:26:36.120Z,9.03
2018-07-20T22:29:04.925Z,8.40
2018-07-20T22:31:33.609Z,8.05
2018-07-20T22:34:02.293Z,8.00
2018-07-20T22:36:30.977Z,7.87
2018-07-20T22:38:59.663Z,7.90
2018-07-20T22:41:28.348Z,8.20
2018-07-20T22:43:57.031Z,7.53
2018-07-20T22:46:25.717Z,7.40
2018-07-20T22:48:54.403Z,7.15
2018-07-20T22:51:23.086Z,7.40
2018-07-20T22:53:51.890Z,7.57
2018-07-20T22:56:20.574Z,7.72
2018-07-20T22:58:49.259Z,7.08
2018-07-20T23:01:18.067Z,7.30
2018-07-20T23:03:53.110Z,7.62
2018-07-20T23:06:21.793Z,7.40
2018-07-20T23:08:50.481Z,6.05
2018-07-20T23:11:19.165Z,6.70
2018-07-20T23:13:47.848Z,6.50
2018-07-20T23:16:16.532Z,6.28
2018-07-20T23:18:45.218Z,6.30
2018-07-20T23:21:13.902Z,6.10
2018-07-20T23:23:42.587Z,6.05
2018-07-20T23:26:11.270Z,5.93
2018-07-20T23:28:39.955Z,5.80
2018-07-20T23:31:08.643Z,6.17
2018-07-20T23:33:37.326Z,6.03
2018-07-20T23:36:06.013Z,6.20
2018-07-20T23:38:34.694Z,5.87
2018-07-20T23:41:03.378Z,5.30
2018-07-20T23:43:32.063Z,5.40
2018-07-20T23:46:00.747Z,4.70
2018-07-20T23:48:29.432Z,4.70
2018-07-20T23:50:58.117Z,4.30
2018-07-20T23:53:26.803Z,5.22
2018-07-20T23:55:55.486Z,4.20
2018-07-20T23:58:24.169Z,4.50
